Time;durP1;ratioP1;P1;durP2;ratioP2;P2;SDS_P1;SDS_P2;PMS_P1;PMS_P2;Temp;Humidity;BMP_temperature;BMP_pressure;BME280_temperature;BME280_humidity;BME280_pressure;Samples;Min_cycle;Max_cycle;Signal;HPM_P1;HPM_P2
2022/09/24 01:04:22;;;;;;;16.27;8.03;;;;;;;8.33;87.07;101094.77;1973729;72;26455;-61
2022/09/24 01:06:52;;;;;;;9.03;5.22;;;;;;;8.29;87.24;101097.06;1949018;73;21115;-62
2022/09/24 01:09:22;;;;;;;8.93;4.70;;;;;;;8.26;87.47;101087.95;1948907;73;21527;-63
2022/09/24 01:12:06;;;;;;;8.00;4.03;;;;;;;8.24;87.62;101091.06;1948968;73;21470;-62
2022/09/24 16:06:22;;;;;;;2.67;0.93;;;;;;;13.49;63.76;101427.06;1958778;73;26212;-57
2022/09/24 17:03:56;;;;;;;5.03;2.05;;;;;;;12.30;68.37;101478.17;1958888;73;25741;-61
2022/09/24 17:06:28;;;;;;;5.83;2.60;;;;;;;12.19;69.22;101479.43;1918107;75;21551;-62
2022/09/24 17:11:45;;;;;;;5.10;1.90;;;;;;;;;;1918103;74;21036;-61
2022/09/24 17:14:12;;;;;;;3.42;2.40;;;;;;;;;;1918308;75;21055;-61
2022/09/24 17:16:41;;;;;;;5.22;2.05;;;;;;;;;;1918270;75;21012;-61
2022/09/24 17:19:10;;;;;;;8.45;1.85;;;;;;;;;;1918282;75;21044;-61
2022/09/24 17:21:39;;;;;;;6.85;2.08;;;;;;;;;;1918143;75;21098;-61
2022/09/24 17:24:07;;;;;;;4.30;1.85;;;;;;;;;;1918149;75;21004;-61
2022/09/24 17:26:35;;;;;;;4.87;2.22;;;;;;;;;;1918120;75;21020;-61
2022/09/24 17:29:03;;;;;;;2.15;1.62;;;;;;;;;;1918145;75;21176;-61
2022/09/24 17:31:31;;;;;;;5.37;2.77;;;;;;;;;;1918139;75;21024;-62
2022/09/24 17:33:59;;;;;;;5.30;2.27;;;;;;;;;;1918261;75;21019;-61
2022/09/24 17:36:27;;;;;;;6.55;2.45;;;;;;;;;;1918087;75;21103;-62
2022/09/24 17:38:56;;;;;;;10.08;3.12;;;;;;;;;;1918191;75;21494;-62
2022/09/24 17:41:24;;;;;;;8.20;3.22;;;;;;;;;;1918130;75;21012;-62
2022/09/24 17:43:52;;;;;;;7.65;3.52;;;;;;;;;;1918177;75;21024;-62
2022/09/24 17:46:21;;;;;;;7.17;3.10;;;;;;;;;;1918318;73;21008;-62
2022/09/24 17:48:52;;;;;;;6.37;2.98;;;;;;;;;;1918380;75;21052;-62
2022/09/24 17:51:22;;;;;;;11.10;4.40;;;;;;;;;;1918336;75;21107;-62
2022/09/24 17:53:52;;;;;;;10.53;4.75;;;;;;;;;;1918126;75;21004;-62
2022/09/24 17:56:20;;;;;;;5.28;2.58;;;;;;;;;;1918181;73;21097;-62
2022/09/24 17:58:48;;;;;;;5.97;2.47;;;;;;;;;;1918140;75;21087;-62
2022/09/24 18:01:23;;;;;;;8.35;6.92;;;;;;;;;;1918151;75;21023;-62
2022/09/24 18:03:57;;;;;;;9.28;7.95;;;;;;;;;;1908377;74;21139;-63
2022/09/24 18:06:26;;;;;;;15.28;10.00;;;;;;;;;;1905739;75;21040;-62
2022/09/24 18:08:53;;;;;;;12.45;7.40;;;;;;;;;;1905812;75;21028;-60
2022/09/24 18:11:22;;;;;;;10.20;5.87;;;;;;;;;;1905849;74;21118;-61
2022/09/24 18:13:51;;;;;;;8.25;4.00;;;;;;;;;;1905367;75;21090;-63
2022/09/24 18:16:21;;;;;;;7.45;2.90;;;;;;;;;;1904015;74;21143;-61
2022/09/24 18:18:49;;;;;;;5.25;2.12;;;;;;;;;;1905163;75;21025;-63
2022/09/24 18:21:49;;;;;;;9.30;2.10;;;;;;;;;;1903846;74;21510;-62
2022/09/24 18:24:15;;;;;;;4.60;1.70;;;;;;;;;;1903339;74;21102;-63
2022/09/24 18:26:43;;;;;;;5.60;2.50;;;;;;;;;;1878858;75;21075;-62
2022/09/24 18:29:14;;;;;;;3.92;2.05;;;;;;;;;;1905135;75;21170;-62
2022/09/24 18:31:43;;;;;;;4.90;2.20;;;;;;;;;;1905250;75;21191;-62
2022/09/24 18:34:15;;;;;;;9.18;4.03;;;;;;;;;;1905127;75;21110;-62
2022/09/24 18:36:45;;;;;;;5.45;2.85;;;;;;;;;;1905123;75;21052;-62
2022/09/24 18:39:18;;;;;;;7.30;2.22;;;;;;;;;;1905149;75;21075;-64
2022/09/24 18:41:54;;;;;;;8.60;2.40;;;;;;;;;;1905196;75;21024;-63
2022/09/24 18:44:20;;;;;;;5.62;2.80;;;;;;;;;;1901973;74;21479;-62
2022/09/24 18:46:48;;;;;;;9.55;5.08;;;;;;;;;;1905047;75;21056;-62
2022/09/24 18:49:22;;;;;;;12.58;5.92;;;;;;;;;;1904622;74;21185;-64
2022/09/24 18:51:55;;;;;;;6.78;3.12;;;;;;;;;;1903824;74;21073;-62
2022/09/24 18:54:23;;;;;;;6.10;2.60;;;;;;;;;;1905011;74;21486;-62
2022/09/24 18:56:50;;;;;;;5.70;2.33;;;;;;;;;;1905069;75;21094;-63
2022/09/24 18:59:18;;;;;;;4.87;1.98;;;;;;;;;;1905165;75;21110;-62
2022/09/24 19:01:47;;;;;;;7.80;2.30;;;;;;;;;;1905052;75;21029;-63
2022/09/24 19:04:26;;;;;;;8.20;2.65;;;;;;;;;;1904853;74;21096;-63
2022/09/24 19:06:56;;;;;;;5.33;2.17;;;;;;;;;;1905042;74;21093;-63
2022/09/24 19:10:09;;;;;;;11.35;3.05;;;;;;;;;;1905196;75;21056;-61
2022/09/24 19:11:58;;;;;;;5.15;2.67;;;;;;;;;;1885060;74;21059;-63
2022/09/24 19:14:25;;;;;;;12.30;5.12;;;;;;;;;;1904757;75;21129;-63
2022/09/24 19:16:56;;;;;;;10.10;5.40;;;;;;;;;;1905302;75;21044;-62
2022/09/24 19:19:24;;;;;;;11.55;5.30;;;;;;;;;;1905217;74;21506;-62
2022/09/24 19:21:52;;;;;;;9.40;3.72;;;;;;;;;;1905163;75;21001;-61
2022/09/24 19:24:19;;;;;;;9.60;3.62;;;;;;;;;;1919875;74;21558;-61
2022/09/24 19:26:46;;;;;;;7.65;3.95;;;;;;;;;;1904910;75;21028;-61
2022/09/24 19:29:17;;;;;;;6.87;2.83;;;;;;;;;;1905240;75;21483;-62
2022/09/24 19:31:49;;;;;;;6.25;3.02;;;;;;;;;;1904758;74;21081;-63
2022/09/24 19:34:17;;;;;;;6.50;2.83;;;;;;;;;;1905060;75;21103;-61
2022/09/24 19:36:45;;;;;;;6.40;3.45;;;;;;;;;;1905177;75;21009;-62
2022/09/24 19:39:17;;;;;;;8.38;3.65;;;;;;;;;;1905163;75;21064;-62
2022/09/24 19:41:44;;;;;;;7.95;3.30;;;;;;;;;;1905069;75;21486;-62
2022/09/24 19:44:14;;;;;;;7.47;2.85;;;;;;;;;;1905121;75;21032;-62
2022/09/24 19:46:43;;;;;;;7.70;2.27;;;;;;;;;;1903976;74;21504;-62
2022/09/24 19:49:13;;;;;;;5.45;2.35;;;;;;;;;;1905111;75;21033;-63
2022/09/24 19:51:40;;;;;;;5.85;2.30;;;;;;;;;;1905031;75;21486;-62
2022/09/24 19:54:09;;;;;;;5.50;2.67;;;;;;;;;;1905003;75;21098;-62
2022/09/24 19:56:37;;;;;;;9.53;2.77;;;;;;;;;;1905102;75;21027;-62
2022/09/24 19:59:08;;;;;;;8.55;3.85;;;;;;;;;;1905114;75;21044;-62
2022/09/24 20:01:48;;;;;;;15.10;4.53;;;;;;;;;;1905086;75;21040;-63
2022/09/24 20:04:22;;;;;;;9.18;3.50;;;;;;;;;;1903768;74;21085;-63
2022/09/24 20:06:47;;;;;;;12.25;3.30;;;;;;;;;;1904459;74;21040;-62
2022/09/24 20:09:16;;;;;;;11.70;4.25;;;;;;;;;;1904874;74;21486;-62
2022/09/24 20:11:49;;;;;;;11.08;3.20;;;;;;;;;;1905084;75;21028;-62
2022/09/24 20:14:20;;;;;;;8.23;3.08;;;;;;;;;;1904761;74;21004;-62
2022/09/24 20:16:44;;;;;;;8.15;2.87;;;;;;;;;;1904066;74;21068;-63
2022/09/24 20:19:12;;;;;;;7.72;2.33;;;;;;;;;;1905081;75;21119;-63
2022/09/24 20:21:46;;;;;;;7.45;2.75;;;;;;;;;;1905123;74;21596;-63
2022/09/24 20:24:11;;;;;;;8.63;2.42;;;;;;;;;;1904563;74;21114;-62
2022/09/24 20:29:25;;;;;;;5.92;2.75;;;;;;;;;;1904974;75;21043;-63
2022/09/24 20:31:55;;;;;;;4.80;2.10;;;;;;;;;;1905147;75;21020;-62
2022/09/24 20:34:27;;;;;;;8.15;2.92;;;;;;;;;;1905091;75;21076;-62
2022/09/24 20:36:56;;;;;;;4.60;2.52;;;;;;;;;;1905078;74;21087;-62
2022/09/24 20:39:23;;;;;;;7.17;2.72;;;;;;;;;;1905051;75;21166;-62
2022/09/24 20:41:53;;;;;;;9.08;2.87;;;;;;;;;;1905136;75;21024;-62
2022/09/24 20:44:23;;;;;;;3.98;2.15;;;;;;;;;;1905242;75;21025;-62
2022/09/24 20:46:50;;;;;;;5.50;2.58;;;;;;;;;;1905222;75;21028;-62
2022/09/24 20:49:23;;;;;;;5.28;2.55;;;;;;;;;;1905123;75;21032;-61
2022/09/24 20:51:49;;;;;;;3.42;1.60;;;;;;;;;;1904537;74;21072;-62
2022/09/24 20:54:20;;;;;;;4.92;2.10;;;;;;;;;;1904967;75;21470;-63
2022/09/24 20:56:47;;;;;;;4.42;2.60;;;;;;;;;;1904586;74;21084;-63
2022/09/24 20:59:14;;;;;;;9.78;2.70;;;;;;;;;;1905092;75;21025;-61
2022/09/24 21:01:43;;;;;;;7.20;2.37;;;;;;;;;;1905106;75;21028;-62
2022/09/24 21:04:11;;;;;;;7.42;3.00;;;;;;;;;;1905021;75;21076;-62
2022/09/24 21:06:39;;;;;;;8.58;2.90;;;;;;;;;;1905232;75;21040;-61
2022/09/24 21:09:06;;;;;;;7.12;2.98;;;;;;;;;;1905079;75;20992;-61
2022/09/24 21:11:34;;;;;;;4.85;2.60;;;;;;;;;;1905103;75;21106;-61
2022/09/24 21:14:01;;;;;;;10.65;3.08;;;;;;;;;;1905211;75;21079;-62
2022/09/24 21:16:30;;;;;;;6.87;2.30;;;;;;;;;;1905217;75;21140;-61
2022/09/24 21:18:59;;;;;;;8.93;3.10;;;;;;;;;;1905086;75;21094;-62
2022/09/24 21:21:28;;;;;;;8.60;4.75;;;;;;;;;;1904879;75;21001;-62
2022/09/24 21:23:57;;;;;;;10.48;6.42;;;;;;;;;;1904687;74;21181;-62
2022/09/24 21:26:26;;;;;;;9.48;6.03;;;;;;;;;;1905053;75;21030;-62
2022/09/24 21:28:55;;;;;;;4.95;4.08;;;;;;;;;;1905192;75;21092;-62
2022/09/24 21:31:24;;;;;;;8.33;3.60;;;;;;;;;;1905185;75;21000;-61
2022/09/24 21:33:52;;;;;;;8.25;3.60;;;;;;;;;;1904985;74;21052;-63
2022/09/24 21:36:20;;;;;;;5.50;2.15;;;;;;;;;;1905053;75;21032;-62
2022/09/24 21:38:54;;;;;;;5.33;1.90;;;;;;;;;;1905163;75;21102;-62
2022/09/24 21:41:26;;;;;;;3.92;1.50;;;;;;;;;;1905055;75;21094;-62
2022/09/24 21:43:54;;;;;;;7.28;4.30;;;;;;;;;;1905140;75;21479;-62
2022/09/24 21:46:23;;;;;;;8.48;5.95;;;;;;;;;;1905082;75;21033;-62
2022/09/24 21:48:50;;;;;;;9.33;6.08;;;;;;;;;;1905053;75;21095;-62
2022/09/24 21:51:20;;;;;;;11.18;8.13;;;;;;;;;;1905205;75;21024;-62
2022/09/24 21:53:48;;;;;;;10.50;5.33;;;;;;;;;;1905186;75;21103;-62
2022/09/24 21:56:17;;;;;;;9.88;4.92;;;;;;;;;;1905368;75;21068;-62
2022/09/24 21:58:45;;;;;;;7.85;3.98;;;;;;;;;;1905213;75;21048;-62
2022/09/24 22:01:15;;;;;;;15.60;8.70;;;;;;;;;;1905118;75;21153;-62
2022/09/24 22:03:44;;;;;;;17.60;11.45;;;;;;;;;;1904964;74;21118;-62
2022/09/24 22:06:11;;;;;;;20.45;10.72;;;;;;;;;;1905276;75;21032;-62
2022/09/24 22:08:39;;;;;;;16.25;9.68;;;;;;;;;;1905222;75;21036;-62
2022/09/24 22:11:08;;;;;;;11.38;6.97;;;;;;;;;;1905218;75;21118;-62
2022/09/24 22:13:36;;;;;;;12.70;8.18;;;;;;;;;;1905251;74;21041;-63
2022/09/24 22:16:05;;;;;;;12.37;9.08;;;;;;;;;;1905225;75;21028;-62
2022/09/24 22:18:32;;;;;;;11.95;7.78;;;;;;;;;;1905214;75;21000;-62
2022/09/24 22:21:01;;;;;;;14.80;6.67;;;;;;;;;;1905209;75;21036;-62
2022/09/24 22:23:29;;;;;;;10.53;6.72;;;;;;;;;;1905117;75;21491;-62
2022/09/24 22:25:57;;;;;;;14.83;10.15;;;;;;;;;;1905254;75;21135;-62
2022/09/24 22:28:26;;;;;;;10.05;8.98;;;;;;;;;;1905152;75;21159;-62
2022/09/24 22:30:54;;;;;;;14.18;11.00;;;;;;;;;;1920105;74;21092;-63
2022/09/24 22:36:08;;;;;;;11.05;6.87;;;;;;;;;;1905281;75;21576;-63
2022/09/24 22:38:35;;;;;;;11.97;7.15;;;;;;;;;;1905102;75;21016;-63
2022/09/24 22:41:04;;;;;;;10.63;6.80;;;;;;;;;;1905141;75;21064;-63
2022/09/24 22:43:32;;;;;;;14.85;6.58;;;;;;;;;;1905167;75;21028;-63
2022/09/24 22:46:00;;;;;;;10.23;5.65;;;;;;;;;;1905278;75;21088;-62
2022/09/24 22:48:28;;;;;;;10.93;7.53;;;;;;;;;;1905192;75;21106;-63
2022/09/24 22:50:57;;;;;;;12.40;6.83;;;;;;;;;;1897495;75;21164;-60
2022/09/24 22:53:25;;;;;;;9.03;5.67;;;;;;;;;;1901915;75;21107;-62
2022/09/24 22:56:06;;;;;;;6.08;4.08;;;;;;;;;;1902039;75;21095;-62
2022/09/24 22:58:34;;;;;;;5.03;2.90;;;;;;;;;;1901771;75;21138;-62
2022/09/24 23:01:09;;;;;;;9.58;4.83;;;;;;;;;;1902046;75;21079;-62
2022/09/24 23:03:37;;;;;;;6.22;3.05;;;;;;;;;;1902081;75;21129;-62
2022/09/24 23:06:06;;;;;;;7.30;3.00;;;;;;;;;;1902130;75;21122;-62
2022/09/24 23:08:34;;;;;;;5.83;3.33;;;;;;;;;;1902156;75;21036;-62
2022/09/24 23:11:07;;;;;;;10.98;4.65;;;;;;;;;;1902045;75;21051;-62
2022/09/24 23:13:36;;;;;;;6.40;4.53;;;;;;;;;;1902369;75;21028;-63
2022/09/24 23:16:09;;;;;;;8.63;5.17;;;;;;;;;;1902062;75;21129;-63
2022/09/24 23:18:37;;;;;;;9.53;3.77;;;;;;;;;;1902039;75;21470;-62
2022/09/24 23:21:05;;;;;;;9.95;5.42;;;;;;;;;;1902162;75;21134;-62
2022/09/24 23:23:33;;;;;;;7.45;3.75;;;;;;;;;;1902012;75;21024;-62
2022/09/24 23:26:03;;;;;;;8.53;5.37;;;;;;;;;;1902047;75;21031;-61
2022/09/24 23:28:32;;;;;;;8.63;5.50;;;;;;;;;;1902138;75;21024;-61
2022/09/24 23:31:00;;;;;;;10.13;5.28;;;;;;;;;;1902087;75;21078;-61
2022/09/24 23:33:32;;;;;;;14.98;6.10;;;;;;;;;;1902093;75;21154;-61
2022/09/24 23:36:00;;;;;;;6.97;3.08;;;;;;;;;;1902045;75;21125;-62
2022/09/24 23:38:28;;;;;;;7.67;3.80;;;;;;;;;;1901982;75;21133;-62
2022/09/24 23:40:56;;;;;;;7.58;3.60;;;;;;;;;;1902035;75;21115;-62
2022/09/24 23:43:24;;;;;;;8.63;2.92;;;;;;;;;;1901894;75;21039;-62
2022/09/24 23:45:51;;;;;;;7.20;2.87;;;;;;;;;;1902042;75;21117;-62
2022/09/24 23:48:19;;;;;;;4.53;2.98;;;;;;;;;;1902035;75;21128;-62
2022/09/24 23:50:47;;;;;;;7.28;3.27;;;;;;;;;;1906104;74;21216;-62
2022/09/24 23:53:15;;;;;;;5.12;2.50;;;;;;;;;;1908428;75;21031;-62
2022/09/24 23:55:45;;;;;;;3.60;2.02;;;;;;;;;;1908247;75;21571;-62
2022/09/24 23:58:15;;;;;;;7.45;3.22;;;;;;;;;;1908293;75;21524;-62
